Time;durP1;ratioP1;P1;durP2;ratioP2;P2;SDS_P1;SDS_P2;PMS_P1;PMS_P2;Temp;Humidity;BMP_temperature;BMP_pressure;BME280_temperature;BME280_humidity;BME280_pressure;Samples;Min_cycle;Max_cycle;Signal;HPM_P1;HPM_P2
2021/03/08 00:00:49;;;;;;;44.67;29.07;;;5.90;70.10;;;;;;5070221;28;20494;-75
2021/03/08 00:03:16;;;;;;;46.17;29.40;;;6.00;70.00;;;;;;5095871;28;20491;-76
2021/03/08 00:05:43;;;;;;;47.43;28.40;;;6.00;70.10;;;;;;5089104;28;20055;-76
2021/03/08 00:08:10;;;;;;;45.97;29.00;;;6.10;70.40;;;;;;5081727;28;20111;-75
2021/03/08 00:10:36;;;;;;;48.27;28.27;;;6.10;70.40;;;;;;5087541;28;20120;-76
2021/03/08 00:13:02;;;;;;;46.17;28.73;;;6.10;70.40;;;;;;5072372;28;20029;-75
2021/03/08 00:15:28;;;;;;;45.63;28.10;;;6.10;70.40;;;;;;5055018;28;20403;-77
2021/03/08 00:17:54;;;;;;;45.20;27.17;;;6.10;70.60;;;;;;5077094;28;20115;-76
2021/03/08 00:20:21;;;;;;;48.07;28.20;;;6.20;70.70;;;;;;5066475;28;20036;-77
2021/03/08 00:22:47;;;;;;;48.93;28.33;;;6.20;70.60;;;;;;5088491;28;20028;-76
2021/03/08 00:25:17;;;;;;;44.93;27.53;;;6.10;70.10;;;;;;5068342;28;20089;-76
2021/03/08 00:27:43;;;;;;;49.57;29.80;;;6.10;70.50;;;;;;5073718;28;20455;-75
2021/03/08 00:30:10;;;;;;;48.53;30.00;;;6.10;70.90;;;;;;5075377;28;20035;-75
2021/03/08 00:32:36;;;;;;;45.30;27.80;;;6.10;71.00;;;;;;5066852;28;20179;-74
2021/03/08 00:35:03;;;;;;;44.87;27.97;;;6.10;70.40;;;;;;5067633;28;20430;-76
2021/03/08 00:37:32;;;;;;;45.80;28.20;;;6.10;70.90;;;;;;5075845;28;20063;-76
2021/03/08 00:40:10;;;;;;;44.27;26.77;;;6.20;71.00;;;;;;5071236;28;20499;-73
2021/03/08 00:42:35;;;;;;;45.70;27.53;;;6.10;70.20;;;;;;5083268;28;20463;-76
2021/03/08 00:45:04;;;;;;;43.13;27.13;;;6.10;70.50;;;;;;5092059;28;20035;-74
2021/03/08 00:47:29;;;;;;;41.27;25.43;;;6.10;70.70;;;;;;5089377;28;20491;-75
2021/03/08 00:49:55;;;;;;;43.67;26.07;;;6.10;70.60;;;;;;5055981;28;20036;-75
2021/03/08 00:52:20;;;;;;;39.13;25.33;;;6.00;70.40;;;;;;5073715;28;20066;-74
2021/03/08 00:54:46;;;;;;;44.83;26.53;;;6.00;70.50;;;;;;5067928;28;20035;-74
2021/03/08 00:57:12;;;;;;;43.90;26.57;;;6.00;70.50;;;;;;5070110;28;20496;-75
2021/03/08 00:59:37;;;;;;;40.10;25.43;;;6.00;71.90;;;;;;5082534;28;20059;-77
2021/03/08 01:02:05;;;;;;;46.50;27.20;;;6.10;71.10;;;;;;5069543;28;20423;-74
2021/03/08 01:04:31;;;;;;;41.73;25.40;;;6.00;70.70;;;;;;5076514;28;20043;-75
2021/03/08 01:06:56;;;;;;;43.30;26.23;;;6.00;70.60;;;;;;5089608;28;20036;-74
2021/03/08 01:09:22;;;;;;;42.23;25.90;;;5.90;70.30;;;;;;5067656;28;20534;-74
2021/03/08 01:11:48;;;;;;;43.03;26.70;;;5.90;71.40;;;;;;5068638;28;20079;-75
2021/03/08 01:14:14;;;;;;;49.27;28.47;;;6.00;71.80;;;;;;5071890;28;20056;-75
2021/03/08 01:16:40;;;;;;;45.87;26.67;;;6.10;71.50;;;;;;5088265;28;20039;-76
2021/03/08 01:19:06;;;;;;;44.40;27.23;;;6.00;71.10;;;;;;5071008;28;20029;-75
2021/03/08 01:21:32;;;;;;;47.67;28.83;;;6.00;71.10;;;;;;5082763;28;20040;-74
2021/03/08 01:23:58;;;;;;;46.93;28.23;;;5.90;71.00;;;;;;5089693;28;20024;-75
2021/03/08 01:26:23;;;;;;;45.87;27.57;;;5.90;71.60;;;;;;5075228;28;20039;-75
2021/03/08 01:28:49;;;;;;;42.97;26.60;;;5.90;71.30;;;;;;5099373;28;20032;-74
2021/03/08 01:31:15;;;;;;;48.23;27.77;;;5.80;71.80;;;;;;5071626;28;20025;-75
2021/03/08 01:33:40;;;;;;;46.83;28.13;;;5.90;72.10;;;;;;5088721;28;20038;-76
2021/03/08 01:36:06;;;;;;;44.93;26.33;;;5.90;72.40;;;;;;5088791;28;20044;-75
2021/03/08 01:38:32;;;;;;;44.30;26.50;;;6.00;72.60;;;;;;5068514;28;20496;-74
2021/03/08 01:40:58;;;;;;;41.00;25.20;;;6.10;72.30;;;;;;5076112;28;20107;-74
2021/03/08 01:43:24;;;;;;;42.37;26.70;;;6.10;72.60;;;;;;5077020;28;20038;-74
2021/03/08 01:45:51;;;;;;;46.17;27.63;;;6.10;72.60;;;;;;5090935;28;20028;-74
2021/03/08 01:48:17;;;;;;;44.77;27.27;;;6.20;72.60;;;;;;5072967;28;20393;-74
2021/03/08 01:50:48;;;;;;;42.40;26.47;;;6.20;72.80;;;;;;5081774;28;20020;-75
2021/03/08 01:53:16;;;;;;;47.80;27.23;;;6.30;72.80;;;;;;5064879;28;20028;-74
2021/03/08 01:55:41;;;;;;;45.97;28.07;;;6.30;72.40;;;;;;5073478;28;20032;-74
2021/03/08 01:58:08;;;;;;;47.67;28.70;;;6.30;72.60;;;;;;5072728;28;20392;-74
2021/03/08 02:00:34;;;;;;;48.07;28.90;;;6.30;71.90;;;;;;5061682;28;20036;-75
2021/03/08 02:03:00;;;;;;;49.20;28.77;;;6.20;71.90;;;;;;5079184;28;20029;-76
2021/03/08 02:05:30;;;;;;;46.23;28.20;;;6.20;71.90;;;;;;5073384;28;20021;-75
2021/03/08 02:07:56;;;;;;;45.97;27.03;;;6.10;72.20;;;;;;5072004;28;20025;-75
2021/03/08 02:10:23;;;;;;;46.37;27.17;;;6.10;72.40;;;;;;5084286;28;20025;-76
2021/03/08 02:12:48;;;;;;;48.20;27.60;;;6.20;72.60;;;;;;5072029;28;20028;-77
2021/03/08 02:15:45;;;;;;;44.03;26.73;;;6.20;72.30;;;;;;5072820;28;20028;-76
2021/03/08 02:18:29;;;;;;;41.50;25.13;;;6.20;72.60;;;;;;5086931;28;20058;-75
2021/03/08 02:21:23;;;;;;;49.40;28.93;;;6.20;72.90;;;;;;5092830;27;20099;-75
2021/03/08 02:23:55;;;;;;;46.33;26.77;;;6.30;72.60;;;;;;5090920;28;20039;-78
2021/03/08 02:26:37;;;;;;;47.47;26.93;;;6.30;72.80;;;;;;5090365;28;20125;-76
2021/03/08 02:29:39;;;;;;;46.77;28.03;;;6.30;72.60;;;;;;5081799;28;20384;-76
2021/03/08 02:32:08;;;;;;;46.17;26.47;;;6.30;72.30;;;;;;5090619;28;20039;-75
2021/03/08 02:35:00;;;;;;;48.20;28.03;;;6.30;72.60;;;;;;5105229;28;20043;-75
2021/03/08 02:37:30;;;;;;;48.73;27.57;;;6.30;72.50;;;;;;5064776;28;20041;-76
2021/03/08 02:40:03;;;;;;;48.80;27.70;;;6.30;72.50;;;;;;5092365;28;20035;-76
2021/03/08 02:42:35;;;;;;;44.92;26.83;;;6.30;72.20;;;;;;5072332;28;20488;-75
2021/03/08 02:45:02;;;;;;;46.53;28.13;;;6.30;72.20;;;;;;5072379;28;20479;-77
2021/03/08 02:47:30;;;;;;;47.70;27.97;;;6.30;72.70;;;;;;5071290;28;20037;-74
2021/03/08 02:49:59;;;;;;;53.50;29.93;;;6.20;72.10;;;;;;5072629;28;20024;-75
2021/03/08 02:52:28;;;;;;;48.47;29.07;;;6.10;71.50;;;;;;5081788;28;20024;-75
2021/03/08 02:54:56;;;;;;;50.60;29.43;;;6.00;72.10;;;;;;5087859;28;20059;-78
2021/03/08 02:57:25;;;;;;;48.77;28.90;;;6.00;72.30;;;;;;5084921;28;20039;-77
2021/03/08 02:59:54;;;;;;;48.93;29.57;;;5.90;72.60;;;;;;5072749;28;20020;-75
2021/03/08 03:02:21;;;;;;;45.77;27.43;;;5.90;72.80;;;;;;5087252;28;20028;-74
2021/03/08 03:04:49;;;;;;;52.77;30.43;;;5.90;73.00;;;;;;5075710;28;20081;-75
2021/03/08 03:07:16;;;;;;;48.17;28.93;;;6.00;72.90;;;;;;5080825;28;20035;-75
2021/03/08 03:09:43;;;;;;;53.07;29.83;;;6.00;73.00;;;;;;5078195;28;20032;-75
2021/03/08 03:12:11;;;;;;;51.30;29.60;;;6.00;73.40;;;;;;5053650;28;20029;-74
2021/03/08 03:14:38;;;;;;;57.03;30.57;;;5.90;72.40;;;;;;5058857;28;20032;-74
2021/03/08 03:17:09;;;;;;;51.83;29.73;;;5.90;72.40;;;;;;5083898;28;20540;-75
2021/03/08 03:19:39;;;;;;;53.47;31.07;;;5.80;72.40;;;;;;5076081;28;20035;-74
2021/03/08 03:22:06;;;;;;;50.13;29.60;;;5.80;73.00;;;;;;5074125;28;20055;-75
2021/03/08 03:24:33;;;;;;;52.53;30.70;;;5.80;73.10;;;;;;5073516;28;20150;-76
2021/03/08 03:27:03;;;;;;;56.53;30.70;;;5.80;73.20;;;;;;5072056;28;20036;-77
2021/03/08 03:29:32;;;;;;;52.87;31.53;;;5.80;73.20;;;;;;5072136;28;20059;-74
2021/03/08 03:31:58;;;;;;;52.07;29.27;;;5.80;72.90;;;;;;5086629;28;20081;-76
2021/03/08 03:34:24;;;;;;;53.40;29.10;;;5.80;73.50;;;;;;5092961;28;20035;-75
2021/03/08 03:36:51;;;;;;;52.87;30.47;;;5.80;73.80;;;;;;5070469;28;20032;-75
2021/03/08 03:39:17;;;;;;;53.37;30.53;;;5.80;73.30;;;;;;5078869;28;20061;-75
2021/03/08 03:41:43;;;;;;;60.20;32.10;;;5.90;73.60;;;;;;5092960;28;20023;-75
2021/03/08 03:44:10;;;;;;;55.60;31.50;;;5.90;73.60;;;;;;5070047;28;20036;-75
2021/03/08 03:46:43;;;;;;;56.23;32.40;;;5.90;73.10;;;;;;5055134;28;20124;-75
2021/03/08 03:49:13;;;;;;;54.10;30.00;;;5.80;73.20;;;;;;5086800;28;20048;-76
2021/03/08 03:51:40;;;;;;;59.60;31.80;;;5.80;73.20;;;;;;5081269;28;20031;-75
2021/03/08 03:54:06;;;;;;;52.10;31.17;;;5.80;73.30;;;;;;5088986;28;20024;-75
2021/03/08 03:56:32;;;;;;;58.80;31.87;;;5.80;73.50;;;;;;5089293;28;20039;-75
2021/03/08 03:59:15;;;;;;;56.77;31.03;;;5.80;73.70;;;;;;5089835;28;20031;-75
2021/03/08 04:01:49;;;;;;;55.67;30.52;;;5.80;73.70;;;;;;5090064;28;20035;-76
2021/03/08 04:04:21;;;;;;;56.43;31.10;;;5.80;74.40;;;;;;5092255;28;20024;-75
2021/03/08 04:06:51;;;;;;;54.30;31.07;;;5.80;74.80;;;;;;5089436;28;20073;-74
2021/03/08 04:09:19;;;;;;;56.27;31.30;;;5.80;74.60;;;;;;5059599;28;20495;-75
2021/03/08 04:11:47;;;;;;;59.43;32.10;;;5.80;74.50;;;;;;5098052;28;20028;-75
2021/03/08 04:14:17;;;;;;;53.07;30.73;;;5.70;74.30;;;;;;5081593;28;20036;-75
2021/03/08 04:16:46;;;;;;;58.60;30.97;;;5.70;74.50;;;;;;5077100;28;20113;-74
2021/03/08 04:19:14;;;;;;;56.07;30.07;;;5.70;74.90;;;;;;5074033;28;20025;-74
2021/03/08 04:21:41;;;;;;;52.60;29.80;;;5.70;75.00;;;;;;5112722;28;20102;-74
2021/03/08 04:24:10;;;;;;;57.47;31.03;;;5.70;74.90;;;;;;5091864;28;20051;-76
2021/03/08 04:26:39;;;;;;;61.77;32.73;;;5.70;74.90;;;;;;5101994;28;20062;-74
2021/03/08 04:29:07;;;;;;;52.93;29.60;;;5.70;74.90;;;;;;5073523;28;20023;-76
2021/03/08 04:31:34;;;;;;;58.63;31.77;;;5.70;75.00;;;;;;5079276;28;20111;-74
2021/03/08 04:34:02;;;;;;;59.27;31.60;;;5.70;74.90;;;;;;5071775;28;20163;-74
2021/03/08 04:36:29;;;;;;;64.43;32.17;;;5.60;74.60;;;;;;5058575;28;20103;-75
2021/03/08 04:38:55;;;;;;;57.37;29.90;;;5.60;74.60;;;;;;5089931;28;20552;-74
2021/03/08 04:41:25;;;;;;;58.97;30.57;;;5.50;74.90;;;;;;5054153;28;20028;-74
2021/03/08 04:43:51;;;;;;;58.73;30.33;;;5.60;75.30;;;;;;5088274;28;20063;-74
2021/03/08 04:46:17;;;;;;;56.07;30.93;;;5.60;75.50;;;;;;5068771;28;20068;-74
2021/03/08 04:48:42;;;;;;;56.03;31.43;;;5.60;75.70;;;;;;5054392;28;20049;-74
2021/03/08 04:51:09;;;;;;;56.07;30.50;;;5.60;75.30;;;;;;5083635;28;20055;-76
2021/03/08 04:53:36;;;;;;;59.40;32.60;;;5.60;75.70;;;;;;5072078;28;20037;-74
2021/03/08 04:56:03;;;;;;;58.70;31.23;;;5.60;75.30;;;;;;5071815;28;20111;-75
2021/03/08 04:58:30;;;;;;;60.40;32.30;;;5.50;75.00;;;;;;5072996;28;20028;-73
2021/03/08 05:00:56;;;;;;;56.73;31.50;;;5.60;75.00;;;;;;5073237;28;20028;-74
2021/03/08 05:03:26;;;;;;;60.43;32.10;;;5.50;74.90;;;;;;5071566;28;20039;-74
2021/03/08 05:05:55;;;;;;;65.70;33.73;;;5.40;75.00;;;;;;5090922;28;20032;-72
2021/03/08 05:08:23;;;;;;;60.90;32.47;;;5.40;74.90;;;;;;5088891;28;20020;-75
2021/03/08 05:10:51;;;;;;;65.07;32.77;;;5.30;75.00;;;;;;5094126;28;20024;-76
2021/03/08 05:13:19;;;;;;;57.60;32.73;;;5.30;75.60;;;;;;5082261;28;20039;-76
2021/03/08 05:15:45;;;;;;;62.00;33.60;;;5.30;75.70;;;;;;5070726;28;20043;-77
2021/03/08 05:18:12;;;;;;;61.33;33.37;;;5.40;75.40;;;;;;5083559;28;20028;-75
2021/03/08 05:20:39;;;;;;;66.80;35.73;;;5.40;75.40;;;;;;5074840;28;20032;-74
2021/03/08 05:23:06;;;;;;;64.53;34.80;;;5.40;75.50;;;;;;5090385;28;20464;-74
2021/03/08 05:25:33;;;;;;;63.23;33.40;;;5.30;75.40;;;;;;5090020;28;20028;-74
2021/03/08 05:28:00;;;;;;;61.10;34.07;;;5.30;75.30;;;;;;5066394;28;20033;-75
2021/03/08 05:30:28;;;;;;;60.27;33.13;;;5.20;75.10;;;;;;5051765;28;20025;-75
2021/03/08 05:32:59;;;;;;;62.47;34.53;;;5.20;75.20;;;;;;5053822;28;20036;-75
2021/03/08 05:35:26;;;;;;;60.90;33.97;;;5.10;75.50;;;;;;5076386;28;20050;-73
2021/03/08 05:37:52;;;;;;;62.27;33.90;;;5.10;75.60;;;;;;5069224;28;20123;-74
2021/03/08 05:40:45;;;;;;;61.67;34.90;;;5.00;75.60;;;;;;5089589;28;20029;-77
2021/03/08 05:43:13;;;;;;;62.58;33.92;;;5.00;75.70;;;;;;5071081;28;20032;-75
2021/03/08 05:45:50;;;;;;;63.13;32.63;;;5.10;76.20;;;;;;5071344;28;20031;-74
2021/03/08 05:48:30;;;;;;;60.03;33.47;;;5.10;76.60;;;;;;5075782;28;20120;-76
2021/03/08 05:51:23;;;;;;;59.80;33.53;;;5.10;76.50;;;;;;5110384;28;20028;-73
2021/03/08 05:54:17;;;;;;;67.13;34.03;;;5.10;76.60;;;;;;5099689;28;20030;-76
2021/03/08 05:56:58;;;;;;;66.33;35.87;;;5.10;76.50;;;;;;5062840;28;20083;-73
2021/03/08 05:59:48;;;;;;;66.10;34.20;;;5.00;76.40;;;;;;5070138;28;20032;-76
2021/03/08 06:02:32;;;;;;;66.07;34.03;;;5.00;76.40;;;;;;5085391;28;20059;-76
2021/03/08 06:05:19;;;;;;;67.27;35.53;;;5.00;76.20;;;;;;5091311;28;20036;-74
2021/03/08 06:08:06;;;;;;;62.90;34.77;;;5.00;76.40;;;;;;5087352;28;20046;-74
2021/03/08 06:10:39;;;;;;;68.07;36.57;;;5.00;76.10;;;;;;5073646;28;20032;-76
2021/03/08 06:13:14;;;;;;;66.65;36.10;;;4.90;76.10;;;;;;5072645;28;20033;-73
2021/03/08 06:15:43;;;;;;;65.20;34.57;;;4.80;76.40;;;;;;5088560;28;20636;-74
2021/03/08 06:18:09;;;;;;;61.33;33.90;;;4.80;76.70;;;;;;5093436;28;20493;-75
2021/03/08 06:20:36;;;;;;;61.97;33.87;;;4.90;77.30;;;;;;5079248;28;20056;-75
2021/03/08 06:23:02;;;;;;;65.73;34.23;;;5.00;77.40;;;;;;5073351;28;20120;-75
2021/03/08 06:25:29;;;;;;;66.77;34.50;;;5.10;77.40;;;;;;5062773;28;20444;-75
2021/03/08 06:27:57;;;;;;;66.50;34.67;;;5.20;77.40;;;;;;5078640;28;20028;-75
2021/03/08 06:30:24;;;;;;;63.40;33.40;;;5.30;77.30;;;;;;5069017;28;20032;-77
2021/03/08 06:32:51;;;;;;;65.27;35.33;;;5.40;77.10;;;;;;5072431;28;20040;-75
2021/03/08 06:35:17;;;;;;;64.10;34.67;;;5.50;76.70;;;;;;5072747;28;20027;-75
2021/03/08 06:37:45;;;;;;;65.20;35.63;;;5.50;76.30;;;;;;5065017;28;20059;-75
2021/03/08 06:40:11;;;;;;;62.07;33.90;;;5.50;76.00;;;;;;5069639;28;20056;-74
2021/03/08 06:42:37;;;;;;;66.50;35.50;;;5.50;76.10;;;;;;5071315;28;20090;-74
2021/03/08 06:45:06;;;;;;;70.10;36.87;;;5.60;75.80;;;;;;5109677;28;20468;-75
2021/03/08 06:47:32;;;;;;;64.70;36.03;;;5.60;75.10;;;;;;5093698;28;20036;-75
2021/03/08 06:49:58;;;;;;;60.40;33.37;;;5.60;75.50;;;;;;5070173;28;20025;-74
2021/03/08 06:52:39;;;;;;;61.97;34.07;;;5.70;75.90;;;;;;5073122;28;20048;-76
2021/03/08 06:55:05;;;;;;;63.70;34.33;;;5.70;75.40;;;;;;5072680;28;20033;-75
2021/03/08 06:57:35;;;;;;;65.37;37.40;;;5.70;75.20;;;;;;5061042;28;20032;-75
2021/03/08 07:00:07;;;;;;;67.00;37.43;;;5.70;75.30;;;;;;5074017;28;20060;-75
2021/03/08 07:02:47;;;;;;;68.43;38.47;;;5.80;74.80;;;;;;5070357;28;20028;-75
2021/03/08 07:05:14;;;;;;;64.10;35.17;;;5.90;74.50;;;;;;5088767;28;20088;-74
2021/03/08 07:07:55;;;;;;;62.63;33.97;;;5.90;74.30;;;;;;5090673;28;20032;-73
2021/03/08 07:10:34;;;;;;;67.40;35.30;;;6.10;75.50;;;;;;5091873;28;20139;-75
2021/03/08 07:13:00;;;;;;;65.70;36.37;;;6.30;74.90;;;;;;5079089;28;20492;-76
2021/03/08 07:15:26;;;;;;;65.50;37.10;;;6.40;74.60;;;;;;5072078;28;20397;-75
2021/03/08 07:17:52;;;;;;;66.70;37.67;;;6.40;73.40;;;;;;5097832;28;20039;-76
2021/03/08 07:20:18;;;;;;;66.40;38.63;;;6.40;72.90;;;;;;5095330;28;20028;-76
2021/03/08 07:22:47;;;;;;;71.20;38.60;;;6.50;72.80;;;;;;5071567;28;20044;-75
2021/03/08 07:25:25;;;;;;;66.23;38.50;;;6.50;72.60;;;;;;5093582;28;20090;-75
2021/03/08 07:27:52;;;;;;;63.67;36.90;;;6.60;72.40;;;;;;5087897;28;20024;-75
2021/03/08 07:30:23;;;;;;;66.77;37.23;;;6.70;72.40;;;;;;5091835;28;20483;-75
2021/03/08 07:32:57;;;;;;;65.73;36.90;;;6.70;72.00;;;;;;5096728;28;20369;-75
2021/03/08 07:35:47;;;;;;;68.73;37.97;;;6.80;71.60;;;;;;5092026;28;20031;-76
2021/03/08 07:38:15;;;;;;;64.40;37.43;;;6.80;71.80;;;;;;5084871;28;20544;-75
2021/03/08 07:40:45;;;;;;;63.57;37.07;;;7.00;71.60;;;;;;5084024;28;20047;-75
2021/03/08 07:43:29;;;;;;;72.10;40.77;;;7.10;71.60;;;;;;5085517;28;20032;-75
2021/03/08 07:45:54;;;;;;;63.87;37.67;;;7.20;70.90;;;;;;5080769;28;20039;-76
2021/03/08 07:48:21;;;;;;;66.27;39.57;;;7.20;71.20;;;;;;5064466;28;20040;-76
2021/03/08 07:50:51;;;;;;;67.03;39.77;;;7.30;70.40;;;;;;5080703;28;20133;-76
2021/03/08 07:53:32;;;;;;;64.77;38.23;;;7.40;69.90;;;;;;5054487;28;20036;-75
2021/03/08 07:56:02;;;;;;;69.13;40.17;;;7.60;70.40;;;;;;5084678;28;20061;-75
2021/03/08 07:58:30;;;;;;;69.17;41.07;;;7.80;69.00;;;;;;5086899;28;20141;-75
2021/03/08 08:00:57;;;;;;;70.50;41.97;;;7.90;68.90;;;;;;5089525;28;20624;-75
2021/03/08 08:03:23;;;;;;;75.07;43.63;;;8.00;68.30;;;;;;5091703;28;20027;-75
2021/03/08 08:05:59;;;;;;;71.40;43.07;;;8.10;68.30;;;;;;5057768;28;20032;-75
2021/03/08 08:08:28;;;;;;;71.50;41.90;;;8.20;67.60;;;;;;5076059;28;20037;-75
2021/03/08 08:10:55;;;;;;;79.23;45.33;;;8.30;67.40;;;;;;5070334;28;20182;-75
2021/03/08 08:13:23;;;;;;;68.90;42.10;;;8.40;67.10;;;;;;5085875;28;20040;-75
2021/03/08 08:15:51;;;;;;;72.63;43.40;;;8.60;66.50;;;;;;5083997;28;20038;-74
2021/03/08 08:18:19;;;;;;;86.37;52.00;;;8.80;66.20;;;;;;5075341;28;20040;-74
2021/03/08 08:20:48;;;;;;;83.33;52.63;;;9.20;67.40;;;;;;5085319;28;20090;-74
2021/03/08 08:23:15;;;;;;;81.03;49.50;;;9.60;66.60;;;;;;5070445;28;20530;-73
2021/03/08 08:25:41;;;;;;;78.27;49.63;;;9.90;65.70;;;;;;5077320;28;20020;-75
2021/03/08 08:28:07;;;;;;;88.60;51.83;;;10.10;64.50;;;;;;5084651;28;20028;-74
2021/03/08 08:30:33;;;;;;;72.77;47.57;;;10.30;63.50;;;;;;5092508;28;20040;-75
2021/03/08 08:32:59;;;;;;;77.47;48.47;;;10.50;62.60;;;;;;5081406;28;20028;-75
2021/03/08 08:35:30;;;;;;;76.00;48.20;;;10.60;62.30;;;;;;5066493;28;20032;-73
2021/03/08 08:38:07;;;;;;;67.40;44.17;;;10.70;61.20;;;;;;5089256;28;20426;-74
2021/03/08 08:40:34;;;;;;;67.83;44.23;;;10.80;60.90;;;;;;5086981;28;20028;-74
2021/03/08 08:43:15;;;;;;;69.27;44.70;;;10.90;59.50;;;;;;5075741;28;20140;-74
2021/03/08 08:45:54;;;;;;;74.13;46.77;;;10.90;59.60;;;;;;5080540;28;20479;-74
2021/03/08 08:48:22;;;;;;;72.77;47.43;;;10.90;60.00;;;;;;5055696;28;20097;-76
2021/03/08 08:50:52;;;;;;;80.77;51.77;;;11.00;59.70;;;;;;5076758;28;20033;-75
2021/03/08 08:53:35;;;;;;;85.90;51.57;;;11.10;60.00;;;;;;5077902;28;20032;-75
2021/03/08 08:56:02;;;;;;;78.07;46.63;;;11.20;59.80;;;;;;5079225;28;20484;-74
2021/03/08 08:58:30;;;;;;;72.23;45.70;;;11.10;58.70;;;;;;5073386;28;20025;-74
2021/03/08 09:01:12;;;;;;;67.33;43.50;;;11.10;59.20;;;;;;5068475;28;20071;-75
2021/03/08 09:04:00;;;;;;;73.73;45.07;;;10.80;58.40;;;;;;5084356;28;20380;-76
2021/03/08 09:06:47;;;;;;;70.50;43.37;;;10.70;59.30;;;;;;5069824;28;20071;-73
2021/03/08 09:09:31;;;;;;;66.90;42.63;;;10.60;59.70;;;;;;5072793;28;20055;-74
2021/03/08 09:11:58;;;;;;;72.27;43.37;;;10.50;59.70;;;;;;5071099;28;21428;-74
2021/03/08 09:14:47;;;;;;;65.63;41.17;;;10.60;60.30;;;;;;5077694;28;20562;-74
2021/03/08 09:17:25;;;;;;;61.63;39.93;;;10.60;59.20;;;;;;5091873;28;20093;-74
2021/03/08 09:19:57;;;;;;;60.37;39.57;;;10.60;59.00;;;;;;5090049;28;20111;-74
2021/03/08 09:22:26;;;;;;;61.40;39.60;;;10.40;59.50;;;;;;5083993;28;20039;-74
2021/03/08 09:24:58;;;;;;;64.97;40.37;;;10.40;59.60;;;;;;5076342;28;20038;-74
2021/03/08 09:27:25;;;;;;;62.45;40.78;;;10.40;59.40;;;;;;5091532;28;20031;-73
2021/03/08 09:29:52;;;;;;;58.87;38.93;;;10.50;59.60;;;;;;5071696;28;20033;-75
2021/03/08 09:32:19;;;;;;;61.27;39.17;;;10.50;59.70;;;;;;5074692;28;20043;-74
2021/03/08 09:34:45;;;;;;;63.90;40.87;;;10.50;60.00;;;;;;5090119;28;20024;-73
2021/03/08 09:37:12;;;;;;;60.83;39.80;;;10.50;59.60;;;;;;5089504;28;20050;-73
2021/03/08 09:39:48;;;;;;;62.10;40.03;;;10.50;59.80;;;;;;5089322;28;20111;-73
2021/03/08 09:42:14;;;;;;;56.03;36.50;;;10.50;60.10;;;;;;5076740;28;20040;-73
2021/03/08 09:44:44;;;;;;;56.67;37.70;;;10.50;60.00;;;;;;5085815;28;20028;-74
2021/03/08 09:47:11;;;;;;;55.73;36.17;;;10.50;59.20;;;;;;5069276;28;20109;-73
2021/03/08 09:49:49;;;;;;;59.67;35.93;;;10.50;59.50;;;;;;5087006;28;20138;-73
2021/03/08 09:52:35;;;;;;;56.87;37.07;;;10.40;60.10;;;;;;5092208;28;20023;-74
2021/03/08 09:55:02;;;;;;;53.13;36.00;;;10.60;60.20;;;;;;5086249;28;20056;-74
2021/03/08 09:57:39;;;;;;;54.17;35.37;;;10.70;60.50;;;;;;5072528;28;20118;-73
2021/03/08 10:00:05;;;;;;;60.53;37.63;;;10.60;58.90;;;;;;5086077;28;20528;-74
2021/03/08 10:02:31;;;;;;;54.17;35.50;;;10.60;60.10;;;;;;5077601;28;20154;-73
2021/03/08 10:04:57;;;;;;;58.27;36.30;;;10.70;59.80;;;;;;5074686;28;20028;-74
2021/03/08 10:07:24;;;;;;;49.07;34.30;;;10.70;60.10;;;;;;5074172;28;20388;-73
2021/03/08 10:10:12;;;;;;;52.93;34.77;;;10.60;60.00;;;;;;5075050;28;20028;-73
2021/03/08 10:12:38;;;;;;;53.63;35.90;;;10.50;59.90;;;;;;5071172;28;20028;-73
2021/03/08 10:15:06;;;;;;;51.90;35.90;;;10.40;59.60;;;;;;5072313;28;20032;-74
2021/03/08 10:17:33;;;;;;;54.40;36.90;;;10.50;59.70;;;;;;5073500;28;20032;-72
2021/03/08 10:20:01;;;;;;;58.40;35.70;;;10.50;60.20;;;;;;5072473;28;20024;-74
2021/03/08 10:22:41;;;;;;;58.60;36.33;;;10.70;60.20;;;;;;5075847;28;20110;-73
2021/03/08 10:25:34;;;;;;;54.43;35.93;;;10.70;59.90;;;;;;5072815;28;20047;-71
2021/03/08 10:28:04;;;;;;;55.58;36.08;;;10.70;60.10;;;;;;5085388;28;20056;-74
2021/03/08 10:30:32;;;;;;;56.83;36.50;;;10.70;59.60;;;;;;5078316;28;20134;-71
2021/03/08 10:33:18;;;;;;;53.60;34.60;;;10.70;59.20;;;;;;5070806;28;20035;-73
2021/03/08 10:35:53;;;;;;;51.87;34.90;;;10.70;59.30;;;;;;5081238;28;20032;-73
2021/03/08 10:38:34;;;;;;;52.93;35.83;;;10.80;59.50;;;;;;5070060;28;20625;-74
2021/03/08 10:41:01;;;;;;;53.90;34.63;;;10.80;59.60;;;;;;5092428;28;20490;-75
2021/03/08 10:43:28;;;;;;;53.10;35.03;;;10.90;59.50;;;;;;5109524;28;20036;-73
2021/03/08 10:45:55;;;;;;;54.80;34.67;;;11.10;59.60;;;;;;5082164;28;20046;-73
2021/03/08 10:48:21;;;;;;;48.97;33.00;;;11.10;59.30;;;;;;5074740;28;20219;-74
2021/03/08 10:50:50;;;;;;;53.27;35.27;;;11.20;58.50;;;;;;5071713;28;20401;-74
2021/03/08 10:53:18;;;;;;;52.67;35.03;;;11.10;58.80;;;;;;5072678;28;20108;-73
2021/03/08 10:55:44;;;;;;;52.10;34.60;;;11.20;58.60;;;;;;5072576;28;20032;-74
2021/03/08 10:58:10;;;;;;;54.50;35.63;;;11.30;58.50;;;;;;5069301;28;20032;-74
2021/03/08 11:00:37;;;;;;;48.43;33.27;;;11.50;57.60;;;;;;5073209;28;20037;-73
2021/03/08 11:03:03;;;;;;;48.47;33.03;;;11.60;57.50;;;;;;5070883;28;20439;-73
2021/03/08 11:05:30;;;;;;;50.27;34.60;;;11.60;57.40;;;;;;5071620;28;20031;-74
2021/03/08 11:07:56;;;;;;;48.97;34.47;;;11.50;57.50;;;;;;5090835;28;20387;-74
2021/03/08 11:10:36;;;;;;;53.80;35.27;;;11.60;57.90;;;;;;5073698;28;20027;-74
2021/03/08 11:13:05;;;;;;;52.37;34.43;;;11.60;56.40;;;;;;5078594;28;20107;-76
2021/03/08 11:15:31;;;;;;;49.53;34.67;;;11.70;57.20;;;;;;5071790;28;20081;-71
2021/03/08 11:17:57;;;;;;;51.77;34.07;;;11.70;56.70;;;;;;5072608;28;20115;-71
2021/03/08 11:20:31;;;;;;;49.33;32.70;;;11.70;56.70;;;;;;5076820;28;20027;-71
2021/03/08 11:23:05;;;;;;;44.43;31.60;;;11.80;57.00;;;;;;5092409;28;20028;-71
2021/03/08 11:25:41;;;;;;;48.37;33.37;;;11.90;56.80;;;;;;5091062;28;20479;-71
2021/03/08 11:28:11;;;;;;;52.27;34.33;;;11.90;56.10;;;;;;5076318;28;20364;-71
2021/03/08 11:30:38;;;;;;;52.17;32.90;;;11.70;55.60;;;;;;5072912;28;20520;-72
2021/03/08 11:33:10;;;;;;;45.57;30.83;;;11.60;57.00;;;;;;5071413;28;20074;-73
2021/03/08 11:35:37;;;;;;;48.95;33.65;;;11.80;57.20;;;;;;5055420;28;20028;-73
2021/03/08 11:38:07;;;;;;;49.57;32.10;;;11.90;56.90;;;;;;5074824;28;20074;-74
2021/03/08 11:40:33;;;;;;;49.03;33.03;;;11.90;55.60;;;;;;5093223;28;20028;-72
2021/03/08 11:43:00;;;;;;;47.67;31.60;;;11.80;55.80;;;;;;5086392;28;20032;-72
2021/03/08 11:45:27;;;;;;;48.77;31.97;;;11.90;56.90;;;;;;5071631;28;20029;-72
2021/03/08 11:47:59;;;;;;;49.27;34.33;;;11.90;56.50;;;;;;5084305;28;20035;-72
2021/03/08 11:50:26;;;;;;;46.87;31.37;;;11.90;55.40;;;;;;5082479;28;20178;-72
2021/03/08 11:52:52;;;;;;;48.30;32.67;;;11.90;56.70;;;;;;5069887;28;20102;-72
2021/03/08 11:55:19;;;;;;;45.27;32.27;;;12.10;56.30;;;;;;5075387;28;20025;-72
2021/03/08 11:57:45;;;;;;;49.10;33.27;;;12.30;55.80;;;;;;5080503;28;20483;-72
2021/03/08 12:00:16;;;;;;;48.53;32.83;;;12.30;55.70;;;;;;5069990;28;20043;-73
2021/03/08 12:02:42;;;;;;;48.77;33.47;;;12.40;54.00;;;;;;5074955;28;20634;-72
2021/03/08 12:05:09;;;;;;;48.57;33.23;;;12.30;54.30;;;;;;5090813;28;20031;-74
2021/03/08 12:07:35;;;;;;;48.13;33.57;;;12.30;54.70;;;;;;5089876;28;20024;-73
2021/03/08 12:10:05;;;;;;;48.70;32.40;;;12.40;54.90;;;;;;5085108;28;20057;-73
2021/03/08 12:12:31;;;;;;;47.17;31.93;;;12.40;55.60;;;;;;5084212;28;20123;-73
2021/03/08 12:14:57;;;;;;;43.93;30.67;;;12.50;54.40;;;;;;5090696;28;20112;-73
2021/03/08 12:17:23;;;;;;;47.63;30.53;;;12.70;55.00;;;;;;5084004;28;20090;-73
2021/03/08 12:19:49;;;;;;;48.13;31.90;;;12.80;54.20;;;;;;5062793;28;20094;-72
2021/03/08 12:22:14;;;;;;;44.07;29.80;;;12.80;54.10;;;;;;5066947;28;20044;-73
2021/03/08 12:24:40;;;;;;;43.30;30.47;;;12.70;54.20;;;;;;5076883;28;20147;-73
2021/03/08 12:27:06;;;;;;;45.93;31.53;;;12.70;54.30;;;;;;5081293;28;20037;-72
2021/03/08 12:29:32;;;;;;;43.50;28.67;;;12.70;54.10;;;;;;5075375;28;20040;-72
2021/03/08 12:31:59;;;;;;;47.20;31.27;;;12.70;55.00;;;;;;5070761;28;20029;-72
2021/03/08 12:34:24;;;;;;;43.43;30.47;;;12.80;54.10;;;;;;5078313;28;20024;-72
2021/03/08 12:36:50;;;;;;;44.30;31.00;;;12.90;54.00;;;;;;5065707;28;20036;-72
2021/03/08 12:39:16;;;;;;;46.33;30.77;;;13.00;53.10;;;;;;5075241;28;20031;-74
2021/03/08 12:41:42;;;;;;;43.53;29.90;;;12.90;52.70;;;;;;5071742;28;20070;-73
2021/03/08 12:44:08;;;;;;;47.83;30.90;;;12.90;53.60;;;;;;5089808;28;20032;-73
2021/03/08 12:46:33;;;;;;;43.47;31.10;;;13.00;53.80;;;;;;5099920;28;20800;-73